Portada
METAR-TAF:

METAR-TAF

Aeroports :

Udaipur, Índia

latitud: 24-37-04N, longitud: 73-53-46E, altitud: 513 m

Observació

L'informe es va fer fa 52 minuts, a les 08:03 UTC
Vent 8 kt del Oest
Temperatura 38°C
Humitat 14%
Pressió 1009 hPa
Visibilitat: 6000 m
Núvols disperses a una alçada de 3000 ft
Núvols disperses a una alçada de 3500 ft

METAR: VAUD 060803Z 27008KT 6000 SCT030 SCT035 38/06 Q1009 NOSIG

Hora: 14:25 (08:55 UTC)

Pronòstic

L'informe es va fer fa 55 minuts, a les 08:00 UTC
Pronòstic vàlid del 06 a les 09 UTC al 06 a les 18 UTC
Vent 6 kt del Oest/Sud-Oest
Visibilitat: 5000 m
Escasses núvols a una alçada de 3000 ft
Núvols disperses a una alçada de 10000 ft
calitja
Evolucionant progressivament
l' 06 a les 13 UTC al 06 a les 15 UTC
Vent 8 kt del Oest
Visibilitat: 3000 m
calitja

TAF: VAUD 060800Z 0609/0618 25006KT 5000 HZ FEW030 SCT100 BECMG 0613/0615 26008KT 3000 HZ

Observacions i pronòstics meteorològics de més de 4000 aeroports (METAR i TAF).

Les estacions disponibles són els punts grocs i vermells al mapa.

Posi el ratolí al punt desitjat per veure el nom de l'estació.

Feu clic per veure les observacions i els pronòstics meteorològics.

Per canviar el mapa: feu clic els botons verds amb una creu de color negre per apropar; al botó verd amb un guió per allunyar la imatge; o en les fletxes verdes per a mapes adjacents.


METAR-TAF: